2MA5 weather

Compaq Powdermill Road Heliport
Maynard, Massachusetts, United States

Public forecast

Using degrees Fahrenheit for public forecast. Weather courtesy of forecast.io.

METAR (pilot weather report)

Closest report is Laurence G Hanscom Field, 7.9 nm (14.6 km) ENE. Retrieved 2019/07/18 00:56 UTC (43 minutes ago):

KBED 180056Z 20003KT 10SM BKN090 OVC120 24/22 A2988 RMK AO2 RAE09 SLP128 P0000 T02440217

TAF (pilot weather forecast)

Forecast is more than 12 hours old.

Closest forecast is Laurence G Hanscom Field, 7.9 nm (14.6 km) ENE. Retrieved 2019/07/17 00:24 UTC (1 day ago):

TAF KBED 172322Z 1800/1824 27004KT P6SM VCSH OVC050 FM180300 24003KT P6SM OVC060 FM180800 00000KT P6SM VCSH OVC040 FM181000 04004KT 6SM BR VCSH OVC020 FM181100 05006KT P6SM VCSH OVC015 FM181500 06007KT 4SM -SHRA OVC008